Time;durP1;ratioP1;P1;durP2;ratioP2;P2;SDS_P1;SDS_P2;PMS_P1;PMS_P2;Temp;Humidity;BMP_temperature;BMP_pressure;BME280_temperature;BME280_humidity;BME280_pressure;Samples;Min_cycle;Max_cycle;Signal;HPM_P1;HPM_P2
2022/04/27 00:00:31;;;;;;;8.32;7.32;;;;;;;;;;5073791;28;20205;-82
2022/04/27 00:02:58;;;;;;;8.10;7.32;;;;;;;;;;5073079;28;20200;-82
2022/04/27 00:05:27;;;;;;;8.50;7.80;;;;;;;;;;5073850;28;20225;-81
2022/04/27 00:07:54;;;;;;;7.78;7.05;;;;;;;;;;5073627;28;20217;-82
2022/04/27 00:10:23;;;;;;;8.93;7.93;;;;;;;;;;5073331;28;20204;-81
2022/04/27 00:12:51;;;;;;;8.07;7.28;;;;;;;;;;5072814;28;20235;-81
2022/04/27 00:15:20;;;;;;;8.45;7.28;;;;;;;;;;5073370;28;20217;-82
2022/04/27 00:17:48;;;;;;;7.93;6.68;;;;;;;;;;5073720;28;20279;-81
2022/04/27 00:20:15;;;;;;;8.45;7.18;;;;;;;;;;5073581;28;20208;-81
2022/04/27 00:22:42;;;;;;;7.57;6.70;;;;;;;;;;5072790;28;20196;-81
2022/04/27 00:25:10;;;;;;;6.97;6.28;;;;;;;;;;5072019;28;20197;-82
2022/04/27 00:27:39;;;;;;;6.93;6.32;;;;;;;;;;5073419;28;20205;-81
2022/04/27 00:30:08;;;;;;;7.25;6.57;;;;;;;;;;5073178;28;20212;-82
2022/04/27 00:32:36;;;;;;;8.05;7.25;;;;;;;;;;5072662;28;20213;-81
2022/04/27 00:35:05;;;;;;;8.13;7.40;;;;;;;;;;5073407;28;20550;-81
2022/04/27 00:37:32;;;;;;;9.20;8.40;;;;;;;;;;5073038;28;20201;-82
2022/04/27 00:40:00;;;;;;;8.60;7.80;;;;;;;;;;5072781;28;20212;-81
2022/04/27 00:42:27;;;;;;;10.68;8.43;;;;;;;;;;5072620;28;20665;-81
2022/04/27 00:44:56;;;;;;;8.13;7.43;;;;;;;;;;5072995;28;20211;-81
2022/04/27 00:47:23;;;;;;;7.63;6.93;;;;;;;;;;5072469;28;20220;-81
2022/04/27 00:49:52;;;;;;;8.23;7.40;;;;;;;;;;5073058;28;20254;-82
2022/04/27 00:52:22;;;;;;;9.40;7.45;;;;;;;;;;5072058;28;20559;-81
2022/04/27 00:54:53;;;;;;;9.45;8.35;;;;;;;;;;5072747;28;20331;-81
2022/04/27 00:57:21;;;;;;;9.63;8.20;;;;;;;;;;5072597;28;20267;-81
2022/04/27 00:59:48;;;;;;;8.93;7.82;;;;;;;;;;5072810;28;20258;-81
2022/04/27 01:02:17;;;;;;;9.80;8.52;;;;;;;;;;5072130;28;20623;-81
2022/04/27 01:04:45;;;;;;;8.70;7.88;;;;;;;;;;5072535;28;20212;-83
2022/04/27 01:07:12;;;;;;;8.57;7.78;;;;;;;;;;5071908;28;20221;-82
2022/04/27 01:09:40;;;;;;;9.32;8.27;;;;;;;;;;5072630;28;20208;-82
2022/04/27 01:12:09;;;;;;;7.72;7.00;;;;;;;;;;5071799;28;20205;-83
2022/04/27 01:14:43;;;;;;;9.20;8.30;;;;;;;;;;5072792;28;20570;-81
2022/04/27 01:17:10;;;;;;;8.98;8.13;;;;;;;;;;5072308;28;20227;-81
2022/04/27 01:19:39;;;;;;;9.07;8.30;;;;;;;;;;5072369;28;20208;-81
2022/04/27 01:22:08;;;;;;;9.48;8.57;;;;;;;;;;5071641;28;20238;-81
2022/04/27 01:24:36;;;;;;;8.55;7.68;;;;;;;;;;5072412;28;20201;-83
2022/04/27 01:27:04;;;;;;;7.88;7.07;;;;;;;;;;5072096;28;20694;-81
2022/04/27 01:29:32;;;;;;;9.57;8.23;;;;;;;;;;5072374;28;20206;-82
2022/04/27 01:32:01;;;;;;;7.38;6.68;;;;;;;;;;5071654;28;20205;-81
2022/04/27 01:34:29;;;;;;;7.88;7.18;;;;;;;;;;5072123;28;20235;-81
2022/04/27 01:38:00;;;;;;;8.43;7.43;;;;;;;;;;5071854;28;20256;-81
2022/04/27 01:39:46;;;;;;;8.20;7.43;;;;;;;;;;5071791;28;20255;-81
2022/04/27 01:42:14;;;;;;;9.50;8.52;;;;;;;;;;5071293;28;20200;-81
2022/04/27 01:44:41;;;;;;;9.35;7.25;;;;;;;;;;5071760;28;20205;-81
2022/04/27 01:47:08;;;;;;;8.98;8.18;;;;;;;;;;5071848;28;20244;-81
2022/04/27 01:49:36;;;;;;;8.23;7.43;;;;;;;;;;5071952;28;20208;-82
2022/04/27 01:54:50;;;;;;;7.63;6.80;;;;;;;;;;5072000;28;20179;-81
2022/04/27 01:57:17;;;;;;;7.53;6.93;;;;;;;;;;5071581;28;20228;-81
2022/04/27 01:59:44;;;;;;;9.50;8.63;;;;;;;;;;5071895;28;20200;-81
2022/04/27 02:02:11;;;;;;;9.05;7.88;;;;;;;;;;5071400;28;20230;-81
2022/04/27 02:04:39;;;;;;;8.48;7.57;;;;;;;;;;5071624;28;20209;-82
2022/04/27 02:07:08;;;;;;;8.18;7.45;;;;;;;;;;5071478;28;20418;-82
2022/04/27 02:09:35;;;;;;;8.27;7.47;;;;;;;;;;5071978;28;20645;-82
2022/04/27 02:12:06;;;;;;;8.40;7.70;;;;;;;;;;5082035;28;20231;-81
2022/04/27 02:14:33;;;;;;;9.13;8.27;;;;;;;;;;5091709;28;20196;-81
2022/04/27 02:17:00;;;;;;;8.65;7.80;;;;;;;;;;5091980;28;20369;-82
2022/04/27 02:19:28;;;;;;;9.15;7.50;;;;;;;;;;5092217;28;20249;-81
2022/04/27 02:21:57;;;;;;;8.02;7.22;;;;;;;;;;5090809;28;20207;-81
2022/04/27 02:24:25;;;;;;;8.15;7.35;;;;;;;;;;5091685;28;20196;-82
2022/04/27 02:26:54;;;;;;;11.13;8.27;;;;;;;;;;5091935;28;20236;-81
2022/04/27 02:29:23;;;;;;;7.82;7.13;;;;;;;;;;5091804;28;20280;-81
2022/04/27 02:31:50;;;;;;;8.85;7.65;;;;;;;;;;5091126;28;20204;-81
2022/04/27 02:34:17;;;;;;;8.15;7.30;;;;;;;;;;5091601;28;20211;-81
2022/04/27 02:36:45;;;;;;;7.93;7.13;;;;;;;;;;5091627;28;20604;-82
2022/04/27 02:39:12;;;;;;;8.57;7.22;;;;;;;;;;5092105;28;20200;-81
2022/04/27 02:41:40;;;;;;;7.90;7.07;;;;;;;;;;5083226;28;20681;-81
2022/04/27 02:44:08;;;;;;;9.10;6.68;;;;;;;;;;5071044;28;20236;-82
2022/04/27 02:46:37;;;;;;;7.22;6.53;;;;;;;;;;5071095;28;20216;-81
2022/04/27 02:51:52;;;;;;;8.88;7.40;;;;;;;;;;5074528;28;20204;-81
2022/04/27 02:54:21;;;;;;;8.80;7.07;;;;;;;;;;5075056;28;20250;-81
2022/04/27 02:56:50;;;;;;;10.48;7.72;;;;;;;;;;5075041;28;20229;-81
2022/04/27 02:59:18;;;;;;;8.23;7.43;;;;;;;;;;5074723;28;20200;-82
2022/04/27 03:01:48;;;;;;;8.80;7.22;;;;;;;;;;5073881;28;20677;-82
2022/04/27 03:04:15;;;;;;;7.07;6.47;;;;;;;;;;5074825;28;20205;-81
2022/04/27 03:06:43;;;;;;;8.52;7.72;;;;;;;;;;5056771;28;20709;-81
2022/04/27 03:09:10;;;;;;;9.05;8.15;;;;;;;;;;5074491;28;20278;-82
2022/04/27 03:11:37;;;;;;;8.88;7.05;;;;;;;;;;5074419;28;20211;-82
2022/04/27 03:14:04;;;;;;;7.28;6.57;;;;;;;;;;5074467;28;20209;-81
2022/04/27 03:16:32;;;;;;;8.32;7.40;;;;;;;;;;5074324;28;20758;-81
2022/04/27 03:19:01;;;;;;;8.18;7.38;;;;;;;;;;5074080;28;20664;-81
2022/04/27 03:21:29;;;;;;;8.10;6.85;;;;;;;;;;5074404;28;20205;-81
2022/04/27 03:23:57;;;;;;;8.68;7.00;;;;;;;;;;5074166;28;20661;-81
2022/04/27 03:26:24;;;;;;;8.75;7.95;;;;;;;;;;5072789;28;20236;-81
2022/04/27 03:28:51;;;;;;;8.48;7.55;;;;;;;;;;5074663;28;20300;-81
2022/04/27 03:31:19;;;;;;;7.78;7.07;;;;;;;;;;5073919;28;20212;-81
2022/04/27 03:33:47;;;;;;;9.82;8.27;;;;;;;;;;5073480;28;20295;-81
2022/04/27 03:36:16;;;;;;;8.40;7.55;;;;;;;;;;5073660;28;20220;-81
2022/04/27 03:38:43;;;;;;;7.97;7.18;;;;;;;;;;5074124;28;20197;-81
2022/04/27 03:41:12;;;;;;;8.57;7.78;;;;;;;;;;5074116;28;20242;-81
2022/04/27 03:43:39;;;;;;;7.72;6.97;;;;;;;;;;5073229;28;20204;-81
2022/04/27 03:46:07;;;;;;;8.82;7.13;;;;;;;;;;5074013;28;20221;-81
2022/04/27 03:48:34;;;;;;;8.23;7.30;;;;;;;;;;5073487;28;20229;-82
2022/04/27 03:51:01;;;;;;;7.57;6.97;;;;;;;;;;5074111;28;20220;-81
2022/04/27 03:53:30;;;;;;;9.55;7.18;;;;;;;;;;5073094;28;20200;-81
2022/04/27 03:55:57;;;;;;;8.32;7.53;;;;;;;;;;5073757;28;20231;-81
2022/04/27 03:58:25;;;;;;;11.48;8.40;;;;;;;;;;5073316;28;20552;-84
2022/04/27 04:00:52;;;;;;;7.05;6.45;;;;;;;;;;5073197;28;20625;-81
2022/04/27 04:03:20;;;;;;;8.48;7.68;;;;;;;;;;5073353;28;20208;-82
2022/04/27 04:05:47;;;;;;;10.20;6.78;;;;;;;;;;5073661;28;20221;-81
2022/04/27 04:08:14;;;;;;;8.23;7.22;;;;;;;;;;5073070;28;20205;-81
2022/04/27 04:10:45;;;;;;;8.07;7.30;;;;;;;;;;5073325;28;20208;-81
2022/04/27 04:13:13;;;;;;;7.95;7.10;;;;;;;;;;5072737;28;20670;-81
2022/04/27 04:15:40;;;;;;;9.32;7.70;;;;;;;;;;5073464;28;20225;-81
2022/04/27 04:18:08;;;;;;;8.10;7.30;;;;;;;;;;5073381;28;20258;-82
2022/04/27 04:20:35;;;;;;;8.00;7.18;;;;;;;;;;5073399;28;20197;-81
2022/04/27 04:23:02;;;;;;;7.75;7.13;;;;;;;;;;5072623;28;20208;-81
2022/04/27 04:28:31;;;;;;;9.07;7.32;;;;;;;;;;5074715;28;20223;-81
2022/04/27 04:31:00;;;;;;;7.05;6.45;;;;;;;;;;5076563;28;20211;-81
2022/04/27 04:33:27;;;;;;;7.28;6.57;;;;;;;;;;5073636;28;20696;-82
2022/04/27 04:35:55;;;;;;;7.47;6.68;;;;;;;;;;5073030;28;20225;-81
2022/04/27 04:38:22;;;;;;;8.18;6.88;;;;;;;;;;5073279;28;20709;-81
2022/04/27 04:40:50;;;;;;;7.82;7.07;;;;;;;;;;5074203;28;20669;-81
2022/04/27 04:43:18;;;;;;;6.82;6.13;;;;;;;;;;5093840;28;20672;-81
2022/04/27 04:45:46;;;;;;;6.88;6.30;;;;;;;;;;5092561;28;20224;-81
2022/04/27 04:48:13;;;;;;;7.80;6.20;;;;;;;;;;5093001;28;20208;-81
2022/04/27 04:50:41;;;;;;;7.85;7.13;;;;;;;;;;5095384;28;20231;-82
2022/04/27 04:53:08;;;;;;;9.07;6.38;;;;;;;;;;5095298;28;20192;-81
2022/04/27 04:55:35;;;;;;;6.60;6.00;;;;;;;;;;5093255;28;20740;-82
2022/04/27 04:58:03;;;;;;;8.80;8.00;;;;;;;;;;5092650;28;20236;-81
2022/04/27 05:00:32;;;;;;;8.20;7.40;;;;;;;;;;5092331;28;20261;-81
2022/04/27 05:02:59;;;;;;;7.30;6.57;;;;;;;;;;5092276;28;20668;-77
2022/04/27 05:05:26;;;;;;;8.40;6.80;;;;;;;;;;5093007;28;20227;-77
2022/04/27 05:07:53;;;;;;;7.63;6.93;;;;;;;;;;5092610;28;20196;-77
2022/04/27 05:10:21;;;;;;;7.45;6.68;;;;;;;;;;5092363;28;20220;-77
2022/04/27 05:12:48;;;;;;;8.95;6.95;;;;;;;;;;5074616;28;20669;-77
2022/04/27 05:15:16;;;;;;;7.47;6.70;;;;;;;;;;5072534;28;20246;-77
2022/04/27 05:17:44;;;;;;;7.93;6.80;;;;;;;;;;5072377;28;20204;-78
2022/04/27 05:20:12;;;;;;;7.75;7.00;;;;;;;;;;5071807;28;20205;-77
2022/04/27 05:22:40;;;;;;;8.93;6.90;;;;;;;;;;5082357;28;20659;-77
2022/04/27 05:25:10;;;;;;;7.05;6.45;;;;;;;;;;5088073;28;20205;-77
2022/04/27 05:27:38;;;;;;;6.68;5.65;;;;;;;;;;5087361;28;20205;-77
2022/04/27 05:32:55;;;;;;;6.53;5.82;;;;;;;;;;5084885;28;20261;-77
2022/04/27 05:35:22;;;;;;;6.50;5.90;;;;;;;;;;5072979;28;20232;-78
2022/04/27 05:37:50;;;;;;;6.80;6.07;;;;;;;;;;5073438;28;20205;-77
2022/04/27 05:40:18;;;;;;;6.13;5.53;;;;;;;;;;5074466;28;20692;-77
2022/04/27 05:42:47;;;;;;;7.25;5.57;;;;;;;;;;5073608;28;20205;-78
2022/04/27 05:45:14;;;;;;;9.80;5.90;;;;;;;;;;5074618;28;20212;-78
2022/04/27 05:47:42;;;;;;;7.28;5.85;;;;;;;;;;5074652;28;20596;-78
2022/04/27 05:50:11;;;;;;;7.43;6.00;;;;;;;;;;5073732;28;20225;-78
2022/04/27 05:52:53;;;;;;;7.63;5.28;;;;;;;;;;5081184;28;20228;-78
2022/04/27 05:55:21;;;;;;;6.85;6.15;;;;;;;;;;5094079;28;20226;-79
2022/04/27 05:57:48;;;;;;;6.57;5.80;;;;;;;;;;5093915;28;20251;-79
2022/04/27 06:00:16;;;;;;;9.02;6.97;;;;;;;;;;5085238;28;20201;-78
2022/04/27 06:02:43;;;;;;;7.47;6.70;;;;;;;;;;5074364;28;20720;-79
2022/04/27 06:05:12;;;;;;;6.72;5.70;;;;;;;;;;5074849;28;20204;-79
2022/04/27 06:07:40;;;;;;;7.13;6.43;;;;;;;;;;5073257;28;20258;-79
2022/04/27 06:10:10;;;;;;;7.95;5.60;;;;;;;;;;5073318;28;20221;-79
2022/04/27 06:12:46;;;;;;;6.82;6.20;;;;;;;;;;5072954;28;20216;-79
2022/04/27 06:15:14;;;;;;;6.28;5.32;;;;;;;;;;5076209;28;20239;-79
2022/04/27 06:17:42;;;;;;;5.93;5.32;;;;;;;;;;5078718;28;20213;-79
2022/04/27 06:20:12;;;;;;;6.35;5.70;;;;;;;;;;5073622;28;20208;-79
2022/04/27 06:22:39;;;;;;;7.72;5.78;;;;;;;;;;5084705;28;20215;-78
2022/04/27 06:25:08;;;;;;;6.10;5.43;;;;;;;;;;5097076;28;20586;-79
2022/04/27 06:27:35;;;;;;;6.38;5.80;;;;;;;;;;5096984;28;20277;-79
2022/04/27 06:30:03;;;;;;;6.70;5.93;;;;;;;;;;5092488;28;20278;-79
2022/04/27 06:32:31;;;;;;;7.80;7.10;;;;;;;;;;5077142;28;20200;-79
2022/04/27 06:35:00;;;;;;;6.95;6.25;;;;;;;;;;5078380;28;20288;-80
2022/04/27 06:37:28;;;;;;;6.45;5.93;;;;;;;;;;5077393;28;20209;-80
2022/04/27 06:39:56;;;;;;;8.00;7.28;;;;;;;;;;5077587;28;20676;-79
2022/04/27 06:42:23;;;;;;;9.00;5.97;;;;;;;;;;5076457;28;20232;-79
2022/04/27 06:44:51;;;;;;;6.28;5.68;;;;;;;;;;5077672;28;20212;-79
2022/04/27 06:47:18;;;;;;;7.85;6.25;;;;;;;;;;5076999;28;20283;-79
2022/04/27 06:49:45;;;;;;;5.63;5.07;;;;;;;;;;5077274;28;20296;-79
2022/04/27 06:52:12;;;;;;;7.75;4.88;;;;;;;;;;5084224;28;20211;-79
2022/04/27 06:54:41;;;;;;;6.00;4.40;;;;;;;;;;5077133;28;20209;-80
2022/04/27 06:57:08;;;;;;;6.32;5.72;;;;;;;;;;5077160;28;20224;-79
2022/04/27 06:59:36;;;;;;;7.43;6.30;;;;;;;;;;5077103;28;20661;-79
2022/04/27 07:02:04;;;;;;;9.32;6.28;;;;;;;;;;5076089;28;20208;-80
2022/04/27 07:04:34;;;;;;;6.20;5.70;;;;;;;;;;5076864;28;20266;-80
2022/04/27 07:07:01;;;;;;;6.82;6.03;;;;;;;;;;5076291;28;20221;-80
2022/04/27 07:09:29;;;;;;;6.03;5.47;;;;;;;;;;5077475;28;20270;-81
2022/04/27 07:11:58;;;;;;;6.38;5.78;;;;;;;;;;5076482;28;20224;-80
2022/04/27 07:14:25;;;;;;;7.35;6.13;;;;;;;;;;5077048;28;20258;-81
2022/04/27 07:16:52;;;;;;;8.30;6.43;;;;;;;;;;5084173;28;20217;-80
2022/04/27 07:19:20;;;;;;;6.53;5.93;;;;;;;;;;5076656;28;20204;-80
2022/04/27 07:21:48;;;;;;;5.90;5.40;;;;;;;;;;5080797;28;20287;-80
2022/04/27 07:24:15;;;;;;;7.32;6.57;;;;;;;;;;5095640;28;20204;-80
2022/04/27 07:26:42;;;;;;;11.55;6.30;;;;;;;;;;5095232;28;20289;-80
2022/04/27 07:29:11;;;;;;;6.68;6.07;;;;;;;;;;5095733;28;20208;-81
2022/04/27 07:31:38;;;;;;;7.70;6.40;;;;;;;;;;5095229;28;20726;-81
2022/04/27 07:34:06;;;;;;;7.55;6.85;;;;;;;;;;5095938;28;20207;-81
2022/04/27 07:36:33;;;;;;;7.35;6.75;;;;;;;;;;5096092;28;20287;-81
2022/04/27 07:39:00;;;;;;;6.82;5.95;;;;;;;;;;5095918;28;20204;-81
2022/04/27 07:41:27;;;;;;;6.72;5.93;;;;;;;;;;5093367;28;20205;-81
2022/04/27 07:43:55;;;;;;;7.07;5.38;;;;;;;;;;5094704;28;20644;-81
2022/04/27 07:46:23;;;;;;;7.47;6.78;;;;;;;;;;5095978;28;20735;-80
2022/04/27 07:48:51;;;;;;;8.50;7.78;;;;;;;;;;5094715;28;20253;-81
2022/04/27 07:51:19;;;;;;;6.82;5.60;;;;;;;;;;5093117;28;20227;-81
2022/04/27 07:53:46;;;;;;;8.38;6.57;;;;;;;;;;5075136;28;20212;-81
2022/04/27 07:56:13;;;;;;;6.40;5.40;;;;;;;;;;5072883;28;20232;-81
2022/04/27 07:58:41;;;;;;;5.75;5.25;;;;;;;;;;5074670;28;20267;-81
2022/04/27 08:01:08;;;;;;;6.88;6.13;;;;;;;;;;5075290;28;20653;-81
2022/04/27 08:03:37;;;;;;;6.97;5.88;;;;;;;;;;5074503;28;20673;-81
2022/04/27 08:06:04;;;;;;;7.43;5.68;;;;;;;;;;5074778;28;20660;-80
2022/04/27 08:08:31;;;;;;;5.95;5.20;;;;;;;;;;5074932;28;20231;-81
2022/04/27 08:10:59;;;;;;;6.22;5.63;;;;;;;;;;5074904;28;20708;-81
2022/04/27 08:13:26;;;;;;;6.35;5.70;;;;;;;;;;5074231;28;20645;-81
2022/04/27 08:15:53;;;;;;;7.70;5.22;;;;;;;;;;5081624;28;20311;-81
2022/04/27 08:18:21;;;;;;;5.70;5.20;;;;;;;;;;5074842;28;20228;-81
2022/04/27 08:23:36;;;;;;;6.47;5.88;;;;;;;;;;5074645;28;20339;-81
2022/04/27 08:26:05;;;;;;;5.60;5.10;;;;;;;;;;5093990;28;20235;-81
2022/04/27 08:28:34;;;;;;;5.88;5.38;;;;;;;;;;5075005;28;20204;-80
2022/04/27 08:31:02;;;;;;;6.85;5.50;;;;;;;;;;5075424;28;20224;-81
2022/04/27 08:33:30;;;;;;;5.85;5.25;;;;;;;;;;5074327;28;20205;-80
2022/04/27 08:35:59;;;;;;;6.63;6.03;;;;;;;;;;5074028;28;20322;-81
2022/04/27 08:38:26;;;;;;;5.70;5.13;;;;;;;;;;5074263;28;20204;-81
2022/04/27 08:40:54;;;;;;;5.95;5.35;;;;;;;;;;5074278;28;20208;-82
2022/04/27 08:43:22;;;;;;;6.03;5.40;;;;;;;;;;5072983;28;20212;-81
2022/04/27 08:45:50;;;;;;;8.68;5.47;;;;;;;;;;5071889;28;20229;-81
2022/04/27 08:48:18;;;;;;;5.78;5.22;;;;;;;;;;5072730;28;20200;-81
2022/04/27 08:50:46;;;;;;;6.40;5.22;;;;;;;;;;5073837;28;20715;-82
2022/04/27 08:53:15;;;;;;;6.78;6.05;;;;;;;;;;5072425;28;20229;-81
2022/04/27 08:55:44;;;;;;;7.25;5.70;;;;;;;;;;5073124;28;20716;-82
2022/04/27 08:58:13;;;;;;;6.90;5.60;;;;;;;;;;5073198;28;20304;-81
2022/04/27 09:00:42;;;;;;;5.28;4.78;;;;;;;;;;5073770;28;20211;-81
2022/04/27 09:03:27;;;;;;;4.78;4.38;;;;;;;;;;5073672;28;20682;-81
2022/04/27 09:05:58;;;;;;;4.63;4.28;;;;;;;;;;5093001;28;20224;-82
2022/04/27 09:08:29;;;;;;;5.00;4.60;;;;;;;;;;5093089;28;20215;-82
2022/04/27 09:11:20;;;;;;;5.88;5.25;;;;;;;;;;5090983;28;20227;-82
2022/04/27 09:13:49;;;;;;;7.55;6.43;;;;;;;;;;5072897;28;20204;-82
2022/04/27 09:16:18;;;;;;;6.45;5.78;;;;;;;;;;5078982;28;20252;-82
2022/04/27 09:22:00;;;;;;;6.05;5.47;;;;;;;;;;5072805;28;20697;-81
2022/04/27 09:24:46;;;;;;;4.28;3.88;;;;;;;;;;5073461;28;20291;-82
2022/04/27 09:27:18;;;;;;;8.43;4.82;;;;;;;;;;5073376;28;20654;-82
2022/04/27 09:29:56;;;;;;;6.38;5.88;;;;;;;;;;5073586;28;20258;-80
2022/04/27 09:32:24;;;;;;;7.57;6.88;;;;;;;;;;5072514;28;20271;-82
2022/04/27 09:34:51;;;;;;;5.65;5.13;;;;;;;;;;5084429;28;20235;-82
2022/04/27 09:37:21;;;;;;;7.15;5.70;;;;;;;;;;5092303;28;20232;-82
2022/04/27 09:40:02;;;;;;;8.60;6.47;;;;;;;;;;5092247;28;20227;-81
2022/04/27 09:42:33;;;;;;;6.43;5.93;;;;;;;;;;5090850;28;20199;-82
2022/04/27 09:45:16;;;;;;;7.50;6.85;;;;;;;;;;5092926;28;20200;-82
2022/04/27 09:47:47;;;;;;;9.68;7.70;;;;;;;;;;5091876;28;20232;-82
2022/04/27 09:50:15;;;;;;;7.93;7.07;;;;;;;;;;5092076;28;20291;-82
2022/04/27 09:52:44;;;;;;;6.32;5.80;;;;;;;;;;5077938;28;20712;-81
2022/04/27 09:55:12;;;;;;;6.30;5.70;;;;;;;;;;5072828;28;20204;-81
2022/04/27 09:57:42;;;;;;;6.75;5.97;;;;;;;;;;5076285;28;20204;-82
2022/04/27 10:00:12;;;;;;;6.72;6.13;;;;;;;;;;5079734;28;20208;-81
2022/04/27 10:02:43;;;;;;;6.72;6.13;;;;;;;;;;5096005;28;20712;-82
2022/04/27 10:05:10;;;;;;;6.28;5.78;;;;;;;;;;5098946;28;20204;-81
2022/04/27 10:07:38;;;;;;;7.00;5.45;;;;;;;;;;5098165;28;20207;-82
2022/04/27 10:10:07;;;;;;;6.18;5.57;;;;;;;;;;5099488;28;20208;-81
2022/04/27 10:12:40;;;;;;;5.68;5.00;;;;;;;;;;5094076;28;20586;-82
2022/04/27 10:15:09;;;;;;;8.68;6.10;;;;;;;;;;5099460;28;20204;-81
2022/04/27 10:17:36;;;;;;;6.70;6.10;;;;;;;;;;5080478;28;20200;-82
2022/04/27 10:20:31;;;;;;;6.43;5.93;;;;;;;;;;5090406;28;20217;-82
2022/04/27 10:23:24;;;;;;;6.93;6.43;;;;;;;;;;5082773;28;20632;-82
2022/04/27 10:26:30;;;;;;;5.97;5.47;;;;;;;;;;5068829;28;20236;-83
2022/04/27 10:29:00;;;;;;;6.20;5.43;;;;;;;;;;4994358;28;20252;-81
2022/04/27 10:31:59;;;;;;;4.68;4.38;;;;;;;;;;5082161;28;20313;-82
2022/04/27 10:34:27;;;;;;;5.40;4.90;;;;;;;;;;5069866;28;20209;-81
2022/04/27 10:36:55;;;;;;;7.15;6.47;;;;;;;;;;5078882;28;20220;-82
2022/04/27 10:39:25;;;;;;;5.82;5.32;;;;;;;;;;5079977;28;20205;-83
2022/04/27 10:42:31;;;;;;;6.40;5.82;;;;;;;;;;5078532;28;20205;-82
2022/04/27 10:45:16;;;;;;;6.40;5.80;;;;;;;;;;5091101;28;20210;-82
2022/04/27 10:47:43;;;;;;;6.28;5.78;;;;;;;;;;5097944;28;20204;-81
2022/04/27 10:50:28;;;;;;;4.93;4.53;;;;;;;;;;5098397;28;20207;-82
2022/04/27 10:52:58;;;;;;;5.85;5.13;;;;;;;;;;5082727;28;20231;-82
2022/04/27 10:55:50;;;;;;;6.05;5.55;;;;;;;;;;5079175;28;20231;-82
2022/04/27 10:58:34;;;;;;;4.60;4.22;;;;;;;;;;5095626;28;20215;-82
2022/04/27 11:01:29;;;;;;;4.28;3.88;;;;;;;;;;5096310;28;20260;-82
2022/04/27 11:04:13;;;;;;;3.85;3.55;;;;;;;;;;5099550;28;20200;-82
2022/04/27 11:07:24;;;;;;;4.43;4.13;;;;;;;;;;5100262;28;20315;-83
2022/04/27 11:10:14;;;;;;;3.90;3.58;;;;;;;;;;5096823;28;20203;-83
2022/04/27 11:12:46;;;;;;;4.38;3.97;;;;;;;;;;5092589;28;20247;-82
2022/04/27 11:15:17;;;;;;;4.88;4.47;;;;;;;;;;5098170;28;20208;-83
2022/04/27 11:17:51;;;;;;;5.03;4.43;;;;;;;;;;5076997;28;20208;-83
2022/04/27 11:20:31;;;;;;;3.92;3.63;;;;;;;;;;5077576;28;20209;-83
2022/04/27 11:23:00;;;;;;;4.90;4.40;;;;;;;;;;5085985;28;20211;-82
2022/04/27 11:25:30;;;;;;;5.15;4.75;;;;;;;;;;5096871;28;20232;-83
2022/04/27 11:27:58;;;;;;;6.03;5.03;;;;;;;;;;5096655;28;20208;-83
2022/04/27 11:30:26;;;;;;;6.18;4.88;;;;;;;;;;5096891;28;20291;-83
2022/04/27 11:32:55;;;;;;;4.68;4.28;;;;;;;;;;5096089;28;20228;-82
2022/04/27 11:35:25;;;;;;;4.97;4.57;;;;;;;;;;5096049;28;20716;-82
2022/04/27 11:37:53;;;;;;;5.63;4.70;;;;;;;;;;5096169;28;20209;-83
2022/04/27 11:40:25;;;;;;;3.95;3.65;;;;;;;;;;5095959;28;20200;-83
2022/04/27 11:42:53;;;;;;;4.55;3.67;;;;;;;;;;5089483;28;20204;-82
2022/04/27 11:45:24;;;;;;;4.82;4.40;;;;;;;;;;5096867;28;20255;-83
2022/04/27 11:48:00;;;;;;;4.85;4.45;;;;;;;;;;5096754;28;20200;-83
2022/04/27 11:50:29;;;;;;;3.75;3.50;;;;;;;;;;5096569;28;20199;-82
2022/04/27 11:53:01;;;;;;;4.22;3.83;;;;;;;;;;5079562;28;20208;-83
2022/04/27 11:55:28;;;;;;;4.35;4.05;;;;;;;;;;5075672;28;20229;-82
2022/04/27 11:57:56;;;;;;;4.57;3.90;;;;;;;;;;5076156;28;20687;-82
2022/04/27 12:00:26;;;;;;;4.68;4.30;;;;;;;;;;5075873;28;20241;-82
2022/04/27 12:02:54;;;;;;;5.45;4.63;;;;;;;;;;5075121;28;20291;-82
2022/04/27 12:05:32;;;;;;;4.75;4.28;;;;;;;;;;5075556;28;20236;-82
2022/04/27 12:08:01;;;;;;;4.10;3.75;;;;;;;;;;5075880;28;20216;-81
2022/04/27 12:10:29;;;;;;;4.25;3.92;;;;;;;;;;5075640;28;20212;-82
2022/04/27 12:13:00;;;;;;;6.13;4.18;;;;;;;;;;5074699;28;20201;-82
2022/04/27 12:15:28;;;;;;;4.88;4.47;;;;;;;;;;5077454;28;20218;-81
2022/04/27 12:17:57;;;;;;;5.00;4.50;;;;;;;;;;5075071;28;20251;-80
2022/04/27 12:20:34;;;;;;;4.55;4.15;;;;;;;;;;5075115;28;20205;-82
2022/04/27 12:23:05;;;;;;;4.30;4.00;;;;;;;;;;5081550;28;20209;-82
2022/04/27 12:25:44;;;;;;;3.72;3.35;;;;;;;;;;5075183;28;20237;-82
2022/04/27 12:28:16;;;;;;;4.53;4.13;;;;;;;;;;5075012;28;20215;-82
2022/04/27 12:30:49;;;;;;;6.60;5.95;;;;;;;;;;5075308;28;20641;-82
2022/04/27 12:33:18;;;;;;;5.07;4.68;;;;;;;;;;5074478;28;20274;-82
2022/04/27 12:38:37;;;;;;;3.40;3.15;;;;;;;;;;5074896;28;20215;-81
2022/04/27 12:41:06;;;;;;;2.90;2.70;;;;;;;;;;5073578;28;20203;-81
2022/04/27 12:43:33;;;;;;;4.18;3.85;;;;;;;;;;5074656;28;20197;-83
2022/04/27 12:46:12;;;;;;;3.70;3.40;;;;;;;;;;5074432;28;20311;-81
2022/04/27 12:48:40;;;;;;;4.95;4.55;;;;;;;;;;5074860;28;20215;-81
2022/04/27 12:51:09;;;;;;;3.40;3.10;;;;;;;;;;5085492;28;20204;-81
2022/04/27 12:53:37;;;;;;;5.05;4.18;;;;;;;;;;5073434;28;20701;-81
2022/04/27 12:56:12;;;;;;;4.22;3.83;;;;;;;;;;5074613;28;20235;-80
2022/04/27 12:58:40;;;;;;;4.07;3.78;;;;;;;;;;5087990;28;20631;-80
2022/04/27 13:01:07;;;;;;;4.53;4.00;;;;;;;;;;5094512;28;20265;-81
2022/04/27 13:03:35;;;;;;;4.00;3.70;;;;;;;;;;5092547;28;20208;-80
2022/04/27 13:06:02;;;;;;;3.85;3.55;;;;;;;;;;5073709;28;20292;-80
2022/04/27 13:08:31;;;;;;;3.72;3.47;;;;;;;;;;5093638;28;20209;-81
2022/04/27 13:13:43;;;;;;;4.75;4.35;;;;;;;;;;5073838;28;20326;-81
2022/04/27 13:16:10;;;;;;;3.70;3.40;;;;;;;;;;5074639;28;20295;-81
2022/04/27 13:18:37;;;;;;;4.20;3.80;;;;;;;;;;5073453;28;20213;-81
2022/04/27 13:21:05;;;;;;;3.42;3.20;;;;;;;;;;5074398;28;20201;-81
2022/04/27 13:23:33;;;;;;;5.43;5.03;;;;;;;;;;5088059;28;20441;-81
2022/04/27 13:26:02;;;;;;;3.50;3.20;;;;;;;;;;5092538;28;20243;-80
2022/04/27 13:28:30;;;;;;;3.58;3.28;;;;;;;;;;5093039;28;20223;-81
2022/04/27 13:30:57;;;;;;;3.95;3.45;;;;;;;;;;5093342;28;20204;-81
2022/04/27 13:33:24;;;;;;;3.30;3.10;;;;;;;;;;5091945;28;20247;-81
2022/04/27 13:35:51;;;;;;;3.15;2.85;;;;;;;;;;5093375;28;20239;-81
2022/04/27 13:38:19;;;;;;;4.03;3.63;;;;;;;;;;5093079;28;20208;-81
2022/04/27 13:40:50;;;;;;;4.40;4.05;;;;;;;;;;5092477;28;20204;-81
2022/04/27 13:43:18;;;;;;;5.53;4.85;;;;;;;;;;5088432;28;20606;-81
2022/04/27 13:45:45;;;;;;;4.13;3.72;;;;;;;;;;5092827;28;20230;-81
2022/04/27 13:48:13;;;;;;;3.97;3.67;;;;;;;;;;5093634;28;20203;-81
2022/04/27 13:50:40;;;;;;;3.55;3.28;;;;;;;;;;5093100;28;20208;-81
2022/04/27 13:53:08;;;;;;;4.10;3.70;;;;;;;;;;5076220;28;20201;-80
2022/04/27 13:55:36;;;;;;;4.47;4.07;;;;;;;;;;5073150;28;20241;-80
2022/04/27 13:58:05;;;;;;;4.55;3.35;;;;;;;;;;5073698;28;20286;-80
2022/04/27 14:00:32;;;;;;;5.00;4.60;;;;;;;;;;5072623;28;20205;-81
2022/04/27 14:02:59;;;;;;;4.32;3.97;;;;;;;;;;5072485;28;20598;-81
2022/04/27 14:05:27;;;;;;;4.03;3.72;;;;;;;;;;5073694;28;20275;-81
2022/04/27 14:07:54;;;;;;;4.32;3.95;;;;;;;;;;5073421;28;20208;-81
2022/04/27 14:10:22;;;;;;;3.95;3.65;;;;;;;;;;5075969;28;20209;-80
2022/04/27 14:15:36;;;;;;;3.75;3.45;;;;;;;;;;5082220;28;20596;-81
2022/04/27 14:18:13;;;;;;;3.10;2.85;;;;;;;;;;5077237;28;20262;-81
2022/04/27 14:20:42;;;;;;;3.70;3.40;;;;;;;;;;5074239;28;20209;-81
2022/04/27 14:23:11;;;;;;;3.30;3.00;;;;;;;;;;5085598;28;20276;-80
2022/04/27 14:25:40;;;;;;;4.30;3.90;;;;;;;;;;5093025;28;20228;-81
2022/04/27 14:28:09;;;;;;;3.60;3.30;;;;;;;;;;5092911;28;20196;-81
2022/04/27 14:30:38;;;;;;;3.90;3.60;;;;;;;;;;5093678;28;20553;-81
2022/04/27 14:33:08;;;;;;;2.97;2.72;;;;;;;;;;5072722;28;20657;-81
2022/04/27 14:35:36;;;;;;;4.47;3.45;;;;;;;;;;5073055;28;20266;-81
2022/04/27 14:38:03;;;;;;;4.07;3.67;;;;;;;;;;5072774;28;20627;-80
2022/04/27 14:40:30;;;;;;;3.70;3.40;;;;;;;;;;5072935;28;20201;-81
2022/04/27 14:42:58;;;;;;;3.88;3.55;;;;;;;;;;5073243;28;20209;-80
2022/04/27 14:45:25;;;;;;;7.07;4.40;;;;;;;;;;5076694;28;20221;-81
2022/04/27 14:47:54;;;;;;;3.30;3.10;;;;;;;;;;5075651;28;20213;-80
2022/04/27 14:50:21;;;;;;;3.55;3.03;;;;;;;;;;5075402;28;20212;-80
2022/04/27 14:52:48;;;;;;;3.63;3.33;;;;;;;;;;5076095;28;20211;-80
2022/04/27 14:55:16;;;;;;;3.42;3.13;;;;;;;;;;5075196;28;20225;-81
2022/04/27 14:57:45;;;;;;;3.70;3.40;;;;;;;;;;5076588;28;20283;-80
2022/04/27 15:00:13;;;;;;;3.20;2.90;;;;;;;;;;5076892;28;20247;-81
2022/04/27 15:02:41;;;;;;;3.55;3.25;;;;;;;;;;5088076;28;20207;-81
2022/04/27 15:05:11;;;;;;;3.67;3.38;;;;;;;;;;5094388;28;20193;-81
2022/04/27 15:07:38;;;;;;;3.42;3.13;;;;;;;;;;5086279;28;20661;-81
2022/04/27 15:10:06;;;;;;;5.13;3.15;;;;;;;;;;5086147;28;20258;-81
2022/04/27 15:12:33;;;;;;;3.58;3.28;;;;;;;;;;5075113;28;20223;-81
2022/04/27 15:15:01;;;;;;;4.40;4.00;;;;;;;;;;5075336;28;20704;-81
2022/04/27 15:17:28;;;;;;;3.78;3.47;;;;;;;;;;5075384;28;20201;-81
2022/04/27 15:22:53;;;;;;;3.75;3.45;;;;;;;;;;5022816;28;20206;-81
2022/04/27 15:25:20;;;;;;;3.17;2.88;;;;;;;;;;5068557;28;20228;-81